createdAt,value
2019-01-14T00:02:14.782Z,7.40
2019-01-14T00:04:43.211Z,7.40
2019-01-14T00:07:11.745Z,7.50
2019-01-14T00:09:40.206Z,7.60
2019-01-14T00:12:08.668Z,7.50
2019-01-14T00:14:37.086Z,7.40
2019-01-14T00:17:05.564Z,7.40
2019-01-14T00:19:33.990Z,7.40
2019-01-14T00:22:02.460Z,7.30
2019-01-14T00:24:30.898Z,7.40
2019-01-14T00:26:59.321Z,7.50
2019-01-14T00:29:27.745Z,7.40
2019-01-14T00:31:56.184Z,7.40
2019-01-14T00:34:25.162Z,7.40
2019-01-14T00:36:53.580Z,7.40
2019-01-14T00:39:21.998Z,7.50
2019-01-14T00:41:50.420Z,7.40
2019-01-14T00:44:18.830Z,7.50
2019-01-14T00:46:47.275Z,7.50
2019-01-14T00:49:15.676Z,7.50
2019-01-14T00:51:44.159Z,7.50
2019-01-14T00:54:12.564Z,7.60
2019-01-14T00:56:40.994Z,7.50
2019-01-14T00:59:09.401Z,7.40
2019-01-14T01:01:37.885Z,7.50
2019-01-14T01:04:06.323Z,7.40
2019-01-14T01:06:34.730Z,7.40
2019-01-14T01:09:05.186Z,7.40
2019-01-14T01:11:33.611Z,7.40
2019-01-14T01:14:02.032Z,7.40
2019-01-14T01:16:30.460Z,7.50
2019-01-14T01:18:58.882Z,7.40
2019-01-14T01:21:27.290Z,7.60
2019-01-14T01:23:55.727Z,7.50
2019-01-14T01:26:24.143Z,7.50
2019-01-14T01:28:52.566Z,7.40
2019-01-14T01:31:20.995Z,7.50
2019-01-14T01:33:49.437Z,7.50
2019-01-14T01:36:17.832Z,7.40
2019-01-14T01:38:46.232Z,7.40
2019-01-14T01:41:14.656Z,7.40
2019-01-14T01:43:43.079Z,7.40
2019-01-14T01:46:11.525Z,7.40
2019-01-14T01:48:39.914Z,7.40
2019-01-14T01:51:09.406Z,7.40
2019-01-14T01:53:37.814Z,7.00
2019-01-14T01:56:06.367Z,6.20
2019-01-14T01:58:34.763Z,5.50
2019-01-14T02:01:03.260Z,5.20
2019-01-14T02:03:31.670Z,5.10
2019-01-14T02:06:00.093Z,5.00
2019-01-14T02:08:28.536Z,5.10
2019-01-14T02:10:56.938Z,5.10
2019-01-14T02:13:25.348Z,5.10
2019-01-14T02:15:53.769Z,5.10
2019-01-14T02:18:22.179Z,5.10
2019-01-14T02:20:50.599Z,5.20
2019-01-14T02:23:19.015Z,5.20
2019-01-14T02:25:47.426Z,5.30
2019-01-14T02:28:15.843Z,5.20
2019-01-14T02:30:44.258Z,5.30
2019-01-14T02:33:12.665Z,5.40
2019-01-14T02:35:41.201Z,5.40
2019-01-14T02:38:09.605Z,5.50
2019-01-14T02:40:38.030Z,5.40
2019-01-14T02:43:06.460Z,5.40
2019-01-14T02:45:34.873Z,5.40
2019-01-14T02:48:03.440Z,5.40
2019-01-14T02:50:31.885Z,5.40
2019-01-14T02:53:00.295Z,5.40
2019-01-14T02:55:28.705Z,5.40
2019-01-14T02:57:57.116Z,5.50
2019-01-14T03:00:26.376Z,5.40
2019-01-14T03:02:54.819Z,5.40
2019-01-14T03:05:23.398Z,5.50
2019-01-14T03:07:51.895Z,5.40
2019-01-14T03:10:20.378Z,5.40
2019-01-14T03:12:48.810Z,5.40
2019-01-14T03:15:18.055Z,5.30
2019-01-14T03:17:46.513Z,5.30
2019-01-14T03:20:16.477Z,5.30
2019-01-14T03:22:45.126Z,5.20
2019-01-14T03:25:14.505Z,5.30
2019-01-14T03:27:42.984Z,5.20
2019-01-14T03:30:13.948Z,5.20
2019-01-14T03:32:42.437Z,5.10
2019-01-14T03:35:10.929Z,5.00
2019-01-14T03:37:39.413Z,5.00
2019-01-14T03:40:10.985Z,5.00
2019-01-14T03:42:39.550Z,5.00
2019-01-14T03:45:09.231Z,5.10
2019-01-14T03:47:38.626Z,5.10
2019-01-14T03:50:13.211Z,5.20
2019-01-14T03:52:41.612Z,5.20
2019-01-14T03:55:10.201Z,5.20
2019-01-14T03:57:39.007Z,5.20
2019-01-14T04:00:13.383Z,5.20
2019-01-14T04:02:41.875Z,5.30
2019-01-14T04:05:10.821Z,5.40
2019-01-14T04:07:39.278Z,5.30
2019-01-14T04:10:10.897Z,5.40
2019-01-14T04:12:39.311Z,5.40
2019-01-14T04:15:10.267Z,5.40
2019-01-14T04:17:38.675Z,5.30
2019-01-14T04:20:10.405Z,5.30
2019-01-14T04:22:39.001Z,5.30
2019-01-14T04:25:08.966Z,5.30
2019-01-14T04:27:37.386Z,5.20
2019-01-14T04:30:18.025Z,5.20
2019-01-14T04:32:46.429Z,5.30
2019-01-14T04:35:15.203Z,5.30
2019-01-14T04:37:43.624Z,5.30
2019-01-14T04:40:14.287Z,5.20
2019-01-14T04:42:43.057Z,5.20
2019-01-14T04:45:15.689Z,5.20
2019-01-14T04:47:45.104Z,5.30
2019-01-14T04:50:19.193Z,5.30
2019-01-14T04:52:47.670Z,5.30
2019-01-14T04:55:16.150Z,5.30
2019-01-14T04:57:44.553Z,5.30
2019-01-14T05:00:21.408Z,5.30
2019-01-14T05:02:49.837Z,5.30
2019-01-14T05:05:18.308Z,5.40
2019-01-14T05:07:46.866Z,5.50
2019-01-14T05:10:17.815Z,5.40
2019-01-14T05:12:46.387Z,5.50
2019-01-14T05:15:14.859Z,5.50
2019-01-14T05:17:43.283Z,5.50
2019-01-14T05:20:17.396Z,5.60
2019-01-14T05:22:45.821Z,5.60
2019-01-14T05:25:14.243Z,5.60
2019-01-14T05:27:42.707Z,5.50
2019-01-14T05:30:16.247Z,5.50
2019-01-14T05:32:44.782Z,5.50
2019-01-14T05:35:13.850Z,5.50
2019-01-14T05:37:42.342Z,5.40
2019-01-14T05:40:19.961Z,5.40
2019-01-14T05:42:48.443Z,5.50
2019-01-14T05:45:17.042Z,5.50
2019-01-14T05:47:45.522Z,5.50
2019-01-14T05:50:15.388Z,5.40
2019-01-14T05:52:43.938Z,5.40
2019-01-14T05:55:13.506Z,5.40
2019-01-14T05:57:41.901Z,5.40
2019-01-14T06:00:24.759Z,5.40
2019-01-14T06:02:53.181Z,5.40
2019-01-14T06:05:21.729Z,5.40
2019-01-14T06:07:50.140Z,5.40
2019-01-14T06:10:18.581Z,5.30
2019-01-14T06:12:46.989Z,5.30
2019-01-14T06:15:16.446Z,5.30
2019-01-14T06:17:44.887Z,5.40
2019-01-14T06:20:16.753Z,5.30
2019-01-14T06:22:45.314Z,5.20
2019-01-14T06:25:15.062Z,5.30
2019-01-14T06:27:43.574Z,5.30
2019-01-14T06:30:15.080Z,5.30
2019-01-14T06:32:43.507Z,5.30
2019-01-14T06:35:12.078Z,5.20
2019-01-14T06:37:40.479Z,5.20
2019-01-14T06:40:13.207Z,5.20
2019-01-14T06:42:41.640Z,5.10
2019-01-14T06:45:10.959Z,5.10
2019-01-14T06:47:39.368Z,5.20
2019-01-14T06:50:10.908Z,5.10
2019-01-14T06:52:39.399Z,5.10
2019-01-14T06:55:08.282Z,5.00
2019-01-14T06:57:36.758Z,5.00
2019-01-14T07:00:11.157Z,5.10
2019-01-14T07:02:39.717Z,5.10
2019-01-14T07:05:09.657Z,5.10
2019-01-14T07:07:38.090Z,5.00
2019-01-14T07:10:09.574Z,5.10
2019-01-14T07:12:38.009Z,5.10
2019-01-14T07:15:08.643Z,5.00
2019-01-14T07:17:37.082Z,5.10
2019-01-14T07:20:08.894Z,5.10
2019-01-14T07:22:37.419Z,5.00
2019-01-14T07:25:07.985Z,5.00
2019-01-14T07:27:36.391Z,5.10
2019-01-14T07:30:10.934Z,5.00
2019-01-14T07:32:39.359Z,5.00
2019-01-14T07:35:08.422Z,5.00
2019-01-14T07:37:36.832Z,5.00
2019-01-14T07:40:08.366Z,5.10
2019-01-14T07:42:36.787Z,5.10
2019-01-14T07:45:07.367Z,5.20
2019-01-14T07:47:36.768Z,5.10
2019-01-14T07:50:08.733Z,5.10
2019-01-14T07:52:37.149Z,5.00
2019-01-14T07:55:06.318Z,5.00
2019-01-14T07:57:34.722Z,5.10
2019-01-14T08:00:04.842Z,5.10
2019-01-14T08:02:33.255Z,5.10
2019-01-14T08:05:01.675Z,5.10
2019-01-14T08:07:30.117Z,5.10
2019-01-14T08:09:58.536Z,5.10
2019-01-14T08:12:27.909Z,5.10
2019-01-14T08:14:56.359Z,5.10
2019-01-14T08:17:24.797Z,5.20
2019-01-14T08:19:53.211Z,5.20
2019-01-14T08:22:22.580Z,5.20
2019-01-14T08:24:51.019Z,5.10
2019-01-14T08:27:19.450Z,5.10
2019-01-14T08:29:47.844Z,5.00
2019-01-14T08:32:16.601Z,5.10
2019-01-14T08:34:45.093Z,5.10
2019-01-14T08:37:13.516Z,5.20
2019-01-14T08:39:41.930Z,5.30
2019-01-14T08:42:10.876Z,5.20
2019-01-14T08:44:39.325Z,5.20
2019-01-14T08:47:07.731Z,5.20
2019-01-14T08:49:36.149Z,5.30
2019-01-14T08:52:04.620Z,5.30
2019-01-14T08:54:33.054Z,5.30
2019-01-14T08:57:01.549Z,5.20
2019-01-14T08:59:29.999Z,5.20
2019-01-14T09:01:58.400Z,5.30
2019-01-14T09:04:32.375Z,5.40
2019-01-14T09:06:57.032Z,5.40
2019-01-14T09:09:25.491Z,5.50
2019-01-14T09:11:53.903Z,5.70
2019-01-14T09:14:22.326Z,5.70
2019-01-14T09:16:50.763Z,5.60
2019-01-14T09:19:19.156Z,5.60
2019-01-14T09:21:47.606Z,5.70
2019-01-14T09:24:16.030Z,5.80
2019-01-14T09:26:45.054Z,5.70
2019-01-14T09:29:13.551Z,5.80
2019-01-14T09:31:42.617Z,5.70
2019-01-14T09:34:11.123Z,5.90
2019-01-14T09:36:39.530Z,5.80
2019-01-14T09:39:08.877Z,5.80
2019-01-14T09:41:37.295Z,5.90
2019-01-14T09:44:06.618Z,5.90
2019-01-14T09:46:35.117Z,5.70
2019-01-14T09:49:03.551Z,5.70
2019-01-14T09:51:32.046Z,5.80
2019-01-14T09:54:00.554Z,5.80
2019-01-14T09:56:28.981Z,6.00
2019-01-14T09:58:57.376Z,6.10
2019-01-14T10:01:25.819Z,6.10
2019-01-14T10:03:54.305Z,6.10
2019-01-14T10:06:22.709Z,6.30
2019-01-14T10:08:51.189Z,6.30
2019-01-14T10:11:19.598Z,6.40
2019-01-14T10:13:48.012Z,6.50
2019-01-14T10:16:16.497Z,6.60
2019-01-14T10:18:44.939Z,6.70
2019-01-14T10:21:13.410Z,6.70
2019-01-14T10:23:41.857Z,6.60
2019-01-14T10:26:11.225Z,6.60
2019-01-14T10:28:39.641Z,6.50
2019-01-14T10:31:08.085Z,6.50
2019-01-14T10:33:36.557Z,6.40
2019-01-14T10:36:05.320Z,6.50
2019-01-14T10:38:33.771Z,6.60
2019-01-14T10:41:02.250Z,6.70
2019-01-14T10:43:30.686Z,6.70
2019-01-14T10:45:59.090Z,6.70
2019-01-14T10:48:27.525Z,6.70
2019-01-14T10:50:56.014Z,6.70
2019-01-14T10:53:24.439Z,6.80
2019-01-14T10:55:52.867Z,6.90
2019-01-14T10:58:21.290Z,6.90
2019-01-14T11:00:49.704Z,6.80
2019-01-14T11:03:18.215Z,6.80
2019-01-14T11:05:46.704Z,6.70
2019-01-14T11:08:15.234Z,6.60
2019-01-14T11:10:43.731Z,6.50
2019-01-14T11:13:12.378Z,6.50
2019-01-14T11:15:40.838Z,6.40
2019-01-14T11:18:09.378Z,6.40
2019-01-14T11:20:37.801Z,6.20
2019-01-14T11:23:07.134Z,6.20
2019-01-14T11:25:35.545Z,6.20
2019-01-14T11:28:04.727Z,6.30
2019-01-14T11:30:33.316Z,6.20
2019-01-14T11:33:01.730Z,6.20
2019-01-14T11:35:30.152Z,6.20
2019-01-14T11:37:58.666Z,6.20
2019-01-14T11:40:32.886Z,6.20
2019-01-14T11:43:01.285Z,6.20
2019-01-14T11:45:29.704Z,6.50
2019-01-14T11:47:58.145Z,6.50
2019-01-14T11:50:26.567Z,6.50
2019-01-14T11:52:55.950Z,6.70
2019-01-14T11:55:24.491Z,6.90
2019-01-14T11:57:52.902Z,7.00
2019-01-14T12:00:23.454Z,7.10
2019-01-14T12:02:52.337Z,7.00
2019-01-14T12:05:20.833Z,7.00
2019-01-14T12:07:50.210Z,7.00
2019-01-14T12:10:19.562Z,6.90
2019-01-14T12:12:49.885Z,6.90
2019-01-14T12:15:23.609Z,6.90
2019-01-14T12:17:52.202Z,6.90
2019-01-14T12:20:20.747Z,7.00
2019-01-14T12:22:50.230Z,7.00
2019-01-14T12:25:19.961Z,7.00
2019-01-14T12:27:48.671Z,7.00
2019-01-14T12:30:25.586Z,6.90
2019-01-14T12:32:54.019Z,6.90
2019-01-14T12:35:22.416Z,6.90
2019-01-14T12:37:50.844Z,7.00
2019-01-14T12:40:19.315Z,7.00
2019-01-14T12:42:47.799Z,6.90
2019-01-14T12:45:18.041Z,6.80
2019-01-14T12:47:46.820Z,6.80
2019-01-14T12:50:17.262Z,6.70
2019-01-14T12:52:46.336Z,6.50
2019-01-14T12:55:18.948Z,6.50
2019-01-14T12:57:47.532Z,6.50
2019-01-14T13:00:21.599Z,6.50
2019-01-14T13:02:50.022Z,6.50
2019-01-14T13:05:20.152Z,6.40
2019-01-14T13:07:48.596Z,6.30
2019-01-14T13:10:17.147Z,6.20
2019-01-14T13:12:45.621Z,6.10
2019-01-14T13:15:19.489Z,6.00
2019-01-14T13:17:48.193Z,6.10
2019-01-14T13:20:18.482Z,6.20
2019-01-14T13:22:46.959Z,6.30
2019-01-14T13:25:15.529Z,6.20
2019-01-14T13:27:44.092Z,6.10
2019-01-14T13:30:17.872Z,6.10
2019-01-14T13:32:46.298Z,6.00
2019-01-14T13:35:14.860Z,5.90
2019-01-14T13:37:43.341Z,6.00
2019-01-14T13:40:13.011Z,6.00
2019-01-14T13:42:41.423Z,6.00
2019-01-14T13:45:18.141Z,6.00
2019-01-14T13:47:47.086Z,5.90
2019-01-14T13:50:21.258Z,5.80
2019-01-14T13:52:49.697Z,5.80
2019-01-14T13:55:18.749Z,5.80
2019-01-14T13:57:47.177Z,5.80
2019-01-14T14:00:20.952Z,5.70
2019-01-14T14:02:49.381Z,5.70
2019-01-14T14:05:17.862Z,5.70
2019-01-14T14:07:46.277Z,5.80
2019-01-14T14:10:24.041Z,5.80
2019-01-14T14:12:52.473Z,5.80
2019-01-14T14:15:21.333Z,5.70
2019-01-14T14:17:49.801Z,5.70
2019-01-14T14:20:18.938Z,5.60
2019-01-14T14:22:47.893Z,5.60
2019-01-14T14:25:16.324Z,5.60
2019-01-14T14:27:44.806Z,5.60
2019-01-14T14:30:39.806Z,5.50
2019-01-14T14:33:08.296Z,5.60
2019-01-14T14:35:36.723Z,5.60
2019-01-14T14:38:06.102Z,5.70
2019-01-14T14:40:34.595Z,5.50
2019-01-14T14:43:03.016Z,5.50
2019-01-14T14:45:31.543Z,5.50
2019-01-14T14:48:00.018Z,5.40
2019-01-14T14:50:28.514Z,5.40
2019-01-14T14:52:57.023Z,5.30
2019-01-14T14:55:25.445Z,5.30
2019-01-14T14:57:53.847Z,5.30
2019-01-14T15:00:23.133Z,5.30
2019-01-14T15:02:51.635Z,5.30
2019-01-14T15:05:21.673Z,5.30
2019-01-14T15:07:50.156Z,5.30
2019-01-14T15:10:20.616Z,5.30
2019-01-14T15:12:49.391Z,5.30
2019-01-14T15:15:19.709Z,5.30
2019-01-14T15:17:48.168Z,5.30
2019-01-14T15:20:19.206Z,5.40
2019-01-14T15:22:47.624Z,5.50
2019-01-14T15:25:16.057Z,5.40
2019-01-14T15:27:44.469Z,5.40
2019-01-14T15:30:21.748Z,5.50
2019-01-14T15:32:50.223Z,5.40
2019-01-14T15:35:19.012Z,5.40
2019-01-14T15:37:47.546Z,5.30
2019-01-14T15:40:17.907Z,5.40
2019-01-14T15:42:46.392Z,5.30
2019-01-14T15:45:17.102Z,5.20
2019-01-14T15:47:45.554Z,5.30
2019-01-14T15:50:15.590Z,5.30
2019-01-14T15:52:44.071Z,5.30
2019-01-14T15:55:15.647Z,5.30
2019-01-14T15:57:44.067Z,5.20
2019-01-14T16:00:17.479Z,5.20
2019-01-14T16:02:45.974Z,5.20
2019-01-14T16:05:15.590Z,5.10
2019-01-14T16:07:44.093Z,5.10
2019-01-14T16:10:15.567Z,5.20
2019-01-14T16:12:44.045Z,5.20
2019-01-14T16:15:12.608Z,5.20
2019-01-14T16:17:41.163Z,5.20
2019-01-14T16:20:12.472Z,5.10
2019-01-14T16:22:40.987Z,5.10
2019-01-14T16:25:09.549Z,5.20
2019-01-14T16:27:37.981Z,5.20
2019-01-14T16:30:12.375Z,5.20
2019-01-14T16:32:40.816Z,5.00
2019-01-14T16:35:09.290Z,5.00
2019-01-14T16:37:37.959Z,5.00
2019-01-14T16:40:08.215Z,5.00
2019-01-14T16:42:36.631Z,5.10
2019-01-14T16:45:11.036Z,5.10
2019-01-14T16:47:39.564Z,5.10
2019-01-14T16:50:10.610Z,5.20
2019-01-14T16:52:39.010Z,5.20
2019-01-14T16:55:08.768Z,5.20
2019-01-14T16:57:37.317Z,5.30
2019-01-14T17:00:09.156Z,5.40
2019-01-14T17:02:37.572Z,5.40
2019-01-14T17:05:06.611Z,5.30
2019-01-14T17:07:35.038Z,5.30
2019-01-14T17:10:05.275Z,5.20
2019-01-14T17:12:33.679Z,5.20
2019-01-14T17:15:02.095Z,5.10
2019-01-14T17:17:30.522Z,5.00
2019-01-14T17:19:59.006Z,5.00
2019-01-14T17:22:27.404Z,5.00
2019-01-14T17:24:55.850Z,5.10
2019-01-14T17:27:24.261Z,5.20
2019-01-14T17:29:52.692Z,5.20
2019-01-14T17:32:21.227Z,5.10
2019-01-14T17:34:49.663Z,5.10
2019-01-14T17:37:18.065Z,5.10
2019-01-14T17:39:46.520Z,5.00
2019-01-14T17:42:15.881Z,5.00
2019-01-14T17:44:44.302Z,5.00
2019-01-14T17:47:12.700Z,5.00
2019-01-14T17:49:41.153Z,4.90
2019-01-14T17:52:09.617Z,4.90
2019-01-14T17:54:38.046Z,4.90
2019-01-14T17:57:06.453Z,4.40
2019-01-14T17:59:34.954Z,4.10
2019-01-14T18:02:03.882Z,3.80
2019-01-14T18:04:32.338Z,3.40
2019-01-14T18:07:00.810Z,3.20
2019-01-14T18:09:29.267Z,3.00
2019-01-14T18:11:57.692Z,2.80
2019-01-14T18:14:26.141Z,2.70
2019-01-14T18:16:54.562Z,2.70
2019-01-14T18:19:22.974Z,2.60
2019-01-14T18:21:51.386Z,2.70
2019-01-14T18:24:19.811Z,2.70
2019-01-14T18:26:48.245Z,2.80
2019-01-14T18:29:16.654Z,2.90
2019-01-14T18:31:45.090Z,3.00
2019-01-14T18:34:13.485Z,2.90
2019-01-14T18:36:41.934Z,3.00
2019-01-14T18:39:10.332Z,3.00
2019-01-14T18:41:38.764Z,2.90
2019-01-14T18:44:07.199Z,2.90
2019-01-14T18:46:36.109Z,2.80
2019-01-14T18:49:04.756Z,2.80
2019-01-14T18:51:33.166Z,2.90
2019-01-14T18:54:01.580Z,2.80
2019-01-14T18:56:30.011Z,2.80
2019-01-14T18:58:58.462Z,2.90
2019-01-14T19:01:26.890Z,2.90
2019-01-14T19:03:55.304Z,3.00
2019-01-14T19:06:23.739Z,3.00
2019-01-14T19:08:52.153Z,3.10
2019-01-14T19:11:20.602Z,3.10
2019-01-14T19:13:49.018Z,3.00
2019-01-14T19:16:17.460Z,3.00
2019-01-14T19:18:45.867Z,3.00
2019-01-14T19:21:14.298Z,3.00
2019-01-14T19:23:42.704Z,2.90
2019-01-14T19:26:11.118Z,2.90
2019-01-14T19:28:39.556Z,2.90
2019-01-14T19:31:07.983Z,2.90
2019-01-14T19:33:36.416Z,2.90
2019-01-14T19:36:05.186Z,2.90
2019-01-14T19:38:33.598Z,2.90
2019-01-14T19:41:02.278Z,2.90
2019-01-14T19:43:30.716Z,2.90
2019-01-14T19:45:59.120Z,2.90
2019-01-14T19:48:27.542Z,2.90
2019-01-14T19:50:55.976Z,2.90
2019-01-14T19:53:24.461Z,2.80
2019-01-14T19:55:52.879Z,2.80
2019-01-14T19:58:21.306Z,2.90
2019-01-14T20:00:49.728Z,2.80
2019-01-14T20:03:18.240Z,2.70
2019-01-14T20:05:46.649Z,2.60
2019-01-14T20:08:16.713Z,2.60
2019-01-14T20:10:45.112Z,2.70
2019-01-14T20:13:13.538Z,2.70
2019-01-14T20:15:42.020Z,2.70
2019-01-14T20:18:10.454Z,2.70
2019-01-14T20:20:38.874Z,2.70
2019-01-14T20:23:07.283Z,2.60
2019-01-14T20:25:37.332Z,2.60
2019-01-14T20:28:05.742Z,2.60
2019-01-14T20:30:34.166Z,2.60
2019-01-14T20:33:02.617Z,2.60
2019-01-14T20:35:31.040Z,2.50
2019-01-14T20:37:59.454Z,2.50
2019-01-14T20:40:27.886Z,2.40
2019-01-14T20:42:56.338Z,2.40
2019-01-14T20:45:24.747Z,2.40
2019-01-14T20:47:53.192Z,2.60
2019-01-14T20:50:23.420Z,2.50
2019-01-14T20:52:51.959Z,2.50
2019-01-14T20:55:20.465Z,2.60
2019-01-14T20:57:48.942Z,2.60
2019-01-14T21:00:21.065Z,2.60
2019-01-14T21:02:52.560Z,2.60
2019-01-14T21:05:21.331Z,2.70
2019-01-14T21:07:49.814Z,2.70
2019-01-14T21:10:18.387Z,2.70
2019-01-14T21:12:46.975Z,2.80
2019-01-14T21:15:15.478Z,2.80
2019-01-14T21:17:44.006Z,2.80
2019-01-14T21:20:17.924Z,2.80
2019-01-14T21:22:46.719Z,2.80
2019-01-14T21:25:15.261Z,2.80
2019-01-14T21:27:43.705Z,2.80
2019-01-14T21:30:15.589Z,2.70
2019-01-14T21:32:44.011Z,2.70
2019-01-14T21:35:12.666Z,2.60
2019-01-14T21:37:41.145Z,2.50
2019-01-14T21:40:12.004Z,2.70
2019-01-14T21:42:40.554Z,2.70
2019-01-14T21:45:11.487Z,2.70
2019-01-14T21:47:39.959Z,2.70
2019-01-14T21:50:11.461Z,2.70
2019-01-14T21:52:39.907Z,2.70
2019-01-14T21:55:10.968Z,2.90
2019-01-14T21:57:39.390Z,2.80
2019-01-14T22:00:13.318Z,2.90
2019-01-14T22:02:41.824Z,3.00
2019-01-14T22:05:10.236Z,3.10
2019-01-14T22:07:38.632Z,3.10
2019-01-14T22:10:10.153Z,3.10
2019-01-14T22:12:38.548Z,3.20
2019-01-14T22:15:09.001Z,3.10
2019-01-14T22:17:37.431Z,3.00
2019-01-14T22:20:14.563Z,3.00
2019-01-14T22:22:43.116Z,3.10
2019-01-14T22:25:11.525Z,3.10
2019-01-14T22:27:40.042Z,3.10
2019-01-14T22:30:11.854Z,3.10
2019-01-14T22:32:40.261Z,3.10
2019-01-14T22:35:08.715Z,3.10
2019-01-14T22:37:37.170Z,3.00
2019-01-14T22:40:09.065Z,3.10
2019-01-14T22:42:37.504Z,3.10
2019-01-14T22:45:07.390Z,3.10
2019-01-14T22:47:35.820Z,3.10
2019-01-14T22:50:07.641Z,3.10
2019-01-14T22:52:37.046Z,3.20
2019-01-14T22:55:07.515Z,3.10
2019-01-14T22:57:35.984Z,3.10
2019-01-14T23:00:11.699Z,3.20
2019-01-14T23:02:40.322Z,3.10
2019-01-14T23:05:08.755Z,3.00
2019-01-14T23:07:37.187Z,3.00
2019-01-14T23:10:05.933Z,2.90
2019-01-14T23:12:34.380Z,2.80
2019-01-14T23:15:02.852Z,2.80
2019-01-14T23:17:31.282Z,2.90
2019-01-14T23:19:59.704Z,3.00
2019-01-14T23:22:28.201Z,3.10
2019-01-14T23:24:56.630Z,3.10
2019-01-14T23:27:25.064Z,3.00
2019-01-14T23:29:53.514Z,2.90
2019-01-14T23:32:21.954Z,2.80
2019-01-14T23:34:50.473Z,2.70
2019-01-14T23:37:18.878Z,2.70
2019-01-14T23:39:47.311Z,2.90
2019-01-14T23:42:15.802Z,3.00
2019-01-14T23:44:44.231Z,2.90
2019-01-14T23:47:12.666Z,2.80
2019-01-14T23:49:41.159Z,2.90
2019-01-14T23:52:09.576Z,2.80
2019-01-14T23:54:37.994Z,2.90
2019-01-14T23:57:06.411Z,3.00
2019-01-14T23:59:34.929Z,2.90
